sensor_id;sensor_type;location;lat;lon;timestamp;P1;durP1;ratioP1;P2;durP2;ratioP2
30173;SDS011;16985;50.814;8.530;2022-09-06T00:01:10;1.77;;;1.58;;
30173;SDS011;16985;50.814;8.530;2022-09-06T00:03:43;4.10;;;1.80;;
30173;SDS011;16985;50.814;8.530;2022-09-06T00:06:12;2.83;;;2.17;;
30173;SDS011;16985;50.814;8.530;2022-09-06T00:08:43;4.82;;;2.33;;
30173;SDS011;16985;50.814;8.530;2022-09-06T00:11:16;6.60;;;2.22;;
30173;SDS011;16985;50.814;8.530;2022-09-06T00:13:47;2.80;;;1.88;;
30173;SDS011;16985;50.814;8.530;2022-09-06T00:16:15;3.25;;;2.10;;
30173;SDS011;16985;50.814;8.530;2022-09-06T00:18:48;2.97;;;2.00;;
30173;SDS011;16985;50.814;8.530;2022-09-06T00:21:23;7.20;;;1.90;;
30173;SDS011;16985;50.814;8.530;2022-09-06T00:23:53;5.15;;;1.85;;
30173;SDS011;16985;50.814;8.530;2022-09-06T00:26:20;4.40;;;2.13;;
30173;SDS011;16985;50.814;8.530;2022-09-06T00:28:48;2.15;;;1.90;;
30173;SDS011;16985;50.814;8.530;2022-09-06T00:31:18;4.15;;;2.13;;
30173;SDS011;16985;50.814;8.530;2022-09-06T00:33:48;4.80;;;1.92;;
30173;SDS011;16985;50.814;8.530;2022-09-06T00:36:15;3.28;;;2.00;;
30173;SDS011;16985;50.814;8.530;2022-09-06T00:38:42;3.15;;;2.28;;
30173;SDS011;16985;50.814;8.530;2022-09-06T00:41:10;2.50;;;1.85;;
30173;SDS011;16985;50.814;8.530;2022-09-06T00:43:41;4.05;;;2.20;;
30173;SDS011;16985;50.814;8.530;2022-09-06T00:46:08;5.28;;;1.90;;
30173;SDS011;16985;50.814;8.530;2022-09-06T00:48:41;3.42;;;2.30;;
30173;SDS011;16985;50.814;8.530;2022-09-06T00:51:10;4.20;;;2.25;;
30173;SDS011;16985;50.814;8.530;2022-09-06T00:53:41;6.20;;;2.17;;
30173;SDS011;16985;50.814;8.530;2022-09-06T00:56:08;5.78;;;2.22;;
30173;SDS011;16985;50.814;8.530;2022-09-06T00:58:40;6.22;;;2.70;;
30173;SDS011;16985;50.814;8.530;2022-09-06T01:01:06;3.55;;;2.20;;
30173;SDS011;16985;50.814;8.530;2022-09-06T01:03:32;2.38;;;2.08;;
30173;SDS011;16985;50.814;8.530;2022-09-06T01:12:44;3.42;;;2.35;;
30173;SDS011;16985;50.814;8.530;2022-09-06T01:15:40;4.32;;;2.30;;
30173;SDS011;16985;50.814;8.530;2022-09-06T01:28:14;7.20;;;2.15;;
30173;SDS011;16985;50.814;8.530;2022-09-06T01:31:16;2.47;;;2.03;;
30173;SDS011;16985;50.814;8.530;2022-09-06T01:36:54;9.48;;;2.38;;
30173;SDS011;16985;50.814;8.530;2022-09-06T01:39:27;2.45;;;2.15;;
30173;SDS011;16985;50.814;8.530;2022-09-06T01:42:06;3.08;;;1.90;;
30173;SDS011;16985;50.814;8.530;2022-09-06T01:44:54;6.25;;;2.25;;
30173;SDS011;16985;50.814;8.530;2022-09-06T01:59:29;4.95;;;3.20;;
30173;SDS011;16985;50.814;8.530;2022-09-06T02:02:18;4.43;;;2.28;;
30173;SDS011;16985;50.814;8.530;2022-09-06T02:05:05;4.28;;;2.40;;
30173;SDS011;16985;50.814;8.530;2022-09-06T02:07:37;5.57;;;2.47;;
30173;SDS011;16985;50.814;8.530;2022-09-06T02:10:14;5.35;;;2.20;;
30173;SDS011;16985;50.814;8.530;2022-09-06T02:12:59;4.05;;;2.50;;
30173;SDS011;16985;50.814;8.530;2022-09-06T02:15:38;6.75;;;1.98;;
30173;SDS011;16985;50.814;8.530;2022-09-06T02:18:14;3.53;;;2.35;;
30173;SDS011;16985;50.814;8.530;2022-09-06T02:20:51;6.05;;;1.88;;
30173;SDS011;16985;50.814;8.530;2022-09-06T02:23:22;4.07;;;2.20;;
30173;SDS011;16985;50.814;8.530;2022-09-06T02:25:53;3.60;;;2.40;;
30173;SDS011;16985;50.814;8.530;2022-09-06T02:28:24;3.28;;;2.22;;
30173;SDS011;16985;50.814;8.530;2022-09-06T02:30:56;3.45;;;2.67;;
30173;SDS011;16985;50.814;8.530;2022-09-06T02:33:33;6.25;;;2.55;;
30173;SDS011;16985;50.814;8.530;2022-09-06T02:36:04;2.13;;;1.92;;
30173;SDS011;16985;50.814;8.530;2022-09-06T02:38:41;3.97;;;2.47;;
30173;SDS011;16985;50.814;8.530;2022-09-06T02:41:11;4.35;;;2.33;;
30173;SDS011;16985;50.814;8.530;2022-09-06T02:43:48;5.10;;;2.15;;
30173;SDS011;16985;50.814;8.530;2022-09-06T02:46:14;2.47;;;2.28;;
30173;SDS011;16985;50.814;8.530;2022-09-06T02:48:42;4.03;;;2.30;;
30173;SDS011;16985;50.814;8.530;2022-09-06T02:51:14;3.50;;;2.22;;
30173;SDS011;16985;50.814;8.530;2022-09-06T02:53:41;2.75;;;2.05;;
30173;SDS011;16985;50.814;8.530;2022-09-06T02:56:08;2.33;;;2.03;;
30173;SDS011;16985;50.814;8.530;2022-09-06T02:58:40;2.40;;;2.20;;
30173;SDS011;16985;50.814;8.530;2022-09-06T03:01:06;5.35;;;3.22;;
30173;SDS011;16985;50.814;8.530;2022-09-06T03:03:40;5.55;;;2.70;;
30173;SDS011;16985;50.814;8.530;2022-09-06T03:06:06;4.50;;;3.00;;
30173;SDS011;16985;50.814;8.530;2022-09-06T03:08:40;8.93;;;4.10;;
30173;SDS011;16985;50.814;8.530;2022-09-06T03:11:06;5.20;;;3.10;;
30173;SDS011;16985;50.814;8.530;2022-09-06T03:13:40;5.95;;;3.25;;
30173;SDS011;16985;50.814;8.530;2022-09-06T03:16:07;6.35;;;3.53;;
30173;SDS011;16985;50.814;8.530;2022-09-06T03:18:35;7.93;;;3.30;;
30173;SDS011;16985;50.814;8.530;2022-09-06T03:21:02;7.65;;;3.50;;
30173;SDS011;16985;50.814;8.530;2022-09-06T03:23:38;11.80;;;4.07;;
30173;SDS011;16985;50.814;8.530;2022-09-06T03:26:05;9.07;;;4.00;;
30173;SDS011;16985;50.814;8.530;2022-09-06T03:28:38;9.52;;;4.15;;
30173;SDS011;16985;50.814;8.530;2022-09-06T03:31:05;8.32;;;3.58;;
30173;SDS011;16985;50.814;8.530;2022-09-06T03:33:40;7.25;;;3.83;;
30173;SDS011;16985;50.814;8.530;2022-09-06T03:36:06;8.52;;;4.07;;
30173;SDS011;16985;50.814;8.530;2022-09-06T03:38:40;7.80;;;3.72;;
30173;SDS011;16985;50.814;8.530;2022-09-06T03:41:06;10.35;;;3.63;;
30173;SDS011;16985;50.814;8.530;2022-09-06T03:43:32;8.77;;;4.28;;
30173;SDS011;16985;50.814;8.530;2022-09-06T03:45:58;8.55;;;3.88;;
30173;SDS011;16985;50.814;8.530;2022-09-06T03:48:25;7.53;;;3.40;;
30173;SDS011;16985;50.814;8.530;2022-09-06T03:50:54;6.28;;;2.88;;
30173;SDS011;16985;50.814;8.530;2022-09-06T03:53:25;4.90;;;3.25;;
30173;SDS011;16985;50.814;8.530;2022-09-06T03:55:53;5.88;;;3.35;;
30173;SDS011;16985;50.814;8.530;2022-09-06T03:58:22;8.23;;;3.20;;
30173;SDS011;16985;50.814;8.530;2022-09-06T04:01:13;3.47;;;3.05;;
30173;SDS011;16985;50.814;8.530;2022-09-06T04:03:42;6.22;;;3.13;;
30173;SDS011;16985;50.814;8.530;2022-09-06T04:06:09;5.70;;;3.00;;
30173;SDS011;16985;50.814;8.530;2022-09-06T04:08:40;6.97;;;3.08;;
30173;SDS011;16985;50.814;8.530;2022-09-06T04:11:09;4.90;;;3.35;;
30173;SDS011;16985;50.814;8.530;2022-09-06T04:13:40;4.20;;;3.30;;
30173;SDS011;16985;50.814;8.530;2022-09-06T04:16:06;7.43;;;3.60;;
30173;SDS011;16985;50.814;8.530;2022-09-06T04:18:32;4.50;;;3.00;;
30173;SDS011;16985;50.814;8.530;2022-09-06T04:20:58;3.92;;;2.90;;
30173;SDS011;16985;50.814;8.530;2022-09-06T04:23:24;4.10;;;3.03;;
30173;SDS011;16985;50.814;8.530;2022-09-06T04:25:53;3.92;;;2.90;;
30173;SDS011;16985;50.814;8.530;2022-09-06T04:28:21;3.17;;;2.70;;
30173;SDS011;16985;50.814;8.530;2022-09-06T04:30:56;4.90;;;3.40;;
30173;SDS011;16985;50.814;8.530;2022-09-06T04:33:24;12.82;;;6.32;;
30173;SDS011;16985;50.814;8.530;2022-09-06T04:35:52;9.45;;;6.63;;
30173;SDS011;16985;50.814;8.530;2022-09-06T04:38:23;13.98;;;4.68;;
30173;SDS011;16985;50.814;8.530;2022-09-06T04:40:54;8.07;;;4.43;;
30173;SDS011;16985;50.814;8.530;2022-09-06T04:43:23;7.53;;;4.20;;
30173;SDS011;16985;50.814;8.530;2022-09-06T04:45:49;6.28;;;3.95;;
30173;SDS011;16985;50.814;8.530;2022-09-06T04:48:15;5.20;;;3.30;;
30173;SDS011;16985;50.814;8.530;2022-09-06T04:50:40;5.82;;;3.47;;
30173;SDS011;16985;50.814;8.530;2022-09-06T04:53:07;10.38;;;3.70;;
30173;SDS011;16985;50.814;8.530;2022-09-06T04:55:40;3.90;;;3.10;;
30173;SDS011;16985;50.814;8.530;2022-09-06T04:58:09;5.55;;;3.03;;
30173;SDS011;16985;50.814;8.530;2022-09-06T05:00:40;4.05;;;2.80;;
30173;SDS011;16985;50.814;8.530;2022-09-06T05:03:15;4.00;;;2.80;;
30173;SDS011;16985;50.814;8.530;2022-09-06T05:05:41;8.48;;;3.47;;
30173;SDS011;16985;50.814;8.530;2022-09-06T05:08:07;4.32;;;2.78;;
30173;SDS011;16985;50.814;8.530;2022-09-06T05:10:40;4.13;;;3.10;;
30173;SDS011;16985;50.814;8.530;2022-09-06T05:13:07;3.83;;;3.08;;
30173;SDS011;16985;50.814;8.530;2022-09-06T05:15:39;3.20;;;2.58;;
30173;SDS011;16985;50.814;8.530;2022-09-06T05:18:05;3.63;;;2.78;;
30173;SDS011;16985;50.814;8.530;2022-09-06T05:20:31;5.97;;;3.00;;
30173;SDS011;16985;50.814;8.530;2022-09-06T05:22:57;5.47;;;2.70;;
30173;SDS011;16985;50.814;8.530;2022-09-06T05:25:23;3.28;;;2.50;;
30173;SDS011;16985;50.814;8.530;2022-09-06T05:27:48;3.90;;;2.85;;
30173;SDS011;16985;50.814;8.530;2022-09-06T05:30:14;3.95;;;3.00;;
30173;SDS011;16985;50.814;8.530;2022-09-06T05:32:45;2.92;;;2.58;;
30173;SDS011;16985;50.814;8.530;2022-09-06T05:35:11;3.35;;;2.70;;
30173;SDS011;16985;50.814;8.530;2022-09-06T05:37:36;5.68;;;3.05;;
30173;SDS011;16985;50.814;8.530;2022-09-06T05:40:02;3.03;;;2.47;;
30173;SDS011;16985;50.814;8.530;2022-09-06T05:42:28;11.98;;;2.83;;
30173;SDS011;16985;50.814;8.530;2022-09-06T05:44:56;6.15;;;2.92;;
30173;SDS011;16985;50.814;8.530;2022-09-06T05:47:22;3.90;;;2.97;;
30173;SDS011;16985;50.814;8.530;2022-09-06T05:49:48;3.47;;;2.75;;
30173;SDS011;16985;50.814;8.530;2022-09-06T05:52:13;6.38;;;3.38;;
30173;SDS011;16985;50.814;8.530;2022-09-06T05:54:41;4.90;;;3.10;;
30173;SDS011;16985;50.814;8.530;2022-09-06T05:57:07;4.97;;;2.60;;
30173;SDS011;16985;50.814;8.530;2022-09-06T05:59:33;4.00;;;2.80;;
30173;SDS011;16985;50.814;8.530;2022-09-06T06:01:58;8.10;;;3.22;;
30173;SDS011;16985;50.814;8.530;2022-09-06T06:04:24;4.03;;;3.25;;
30173;SDS011;16985;50.814;8.530;2022-09-06T06:06:53;3.15;;;2.85;;
30173;SDS011;16985;50.814;8.530;2022-09-06T06:09:19;4.90;;;2.90;;
30173;SDS011;16985;50.814;8.530;2022-09-06T06:11:44;6.63;;;4.20;;
30173;SDS011;16985;50.814;8.530;2022-09-06T06:14:10;5.32;;;3.25;;
30173;SDS011;16985;50.814;8.530;2022-09-06T06:16:36;3.95;;;3.13;;
30173;SDS011;16985;50.814;8.530;2022-09-06T06:19:02;5.45;;;2.75;;
30173;SDS011;16985;50.814;8.530;2022-09-06T06:21:30;7.10;;;2.88;;
30173;SDS011;16985;50.814;8.530;2022-09-06T06:23:58;5.35;;;2.60;;
30173;SDS011;16985;50.814;8.530;2022-09-06T06:26:28;5.07;;;3.08;;
30173;SDS011;16985;50.814;8.530;2022-09-06T06:28:57;5.00;;;3.30;;
30173;SDS011;16985;50.814;8.530;2022-09-06T06:31:27;6.88;;;3.45;;
30173;SDS011;16985;50.814;8.530;2022-09-06T06:33:54;4.70;;;2.92;;
30173;SDS011;16985;50.814;8.530;2022-09-06T06:36:24;4.90;;;2.92;;
30173;SDS011;16985;50.814;8.530;2022-09-06T06:38:52;3.60;;;2.70;;
30173;SDS011;16985;50.814;8.530;2022-09-06T06:41:22;8.07;;;3.75;;
30173;SDS011;16985;50.814;8.530;2022-09-06T06:43:51;4.72;;;2.80;;
30173;SDS011;16985;50.814;8.530;2022-09-06T06:46:31;6.83;;;3.40;;
30173;SDS011;16985;50.814;8.530;2022-09-06T06:49:00;4.70;;;3.25;;
30173;SDS011;16985;50.814;8.530;2022-09-06T06:51:32;6.00;;;3.15;;
30173;SDS011;16985;50.814;8.530;2022-09-06T06:54:01;4.60;;;3.03;;
30173;SDS011;16985;50.814;8.530;2022-09-06T06:56:29;3.58;;;2.72;;
30173;SDS011;16985;50.814;8.530;2022-09-06T06:58:58;4.93;;;3.15;;
30173;SDS011;16985;50.814;8.530;2022-09-06T07:01:27;3.67;;;3.03;;
30173;SDS011;16985;50.814;8.530;2022-09-06T07:03:56;6.72;;;2.88;;
30173;SDS011;16985;50.814;8.530;2022-09-06T07:06:22;5.53;;;2.90;;
30173;SDS011;16985;50.814;8.530;2022-09-06T07:08:57;4.30;;;3.40;;
30173;SDS011;16985;50.814;8.530;2022-09-06T07:11:23;3.70;;;2.92;;
30173;SDS011;16985;50.814;8.530;2022-09-06T07:13:50;5.95;;;2.80;;
30173;SDS011;16985;50.814;8.530;2022-09-06T07:16:19;3.03;;;2.72;;
30173;SDS011;16985;50.814;8.530;2022-09-06T07:18:51;5.40;;;2.97;;
30173;SDS011;16985;50.814;8.530;2022-09-06T07:21:19;8.00;;;3.88;;
30173;SDS011;16985;50.814;8.530;2022-09-06T07:23:51;7.53;;;3.15;;
30173;SDS011;16985;50.814;8.530;2022-09-06T07:26:19;3.88;;;3.00;;
30173;SDS011;16985;50.814;8.530;2022-09-06T07:28:47;8.50;;;3.03;;
30173;SDS011;16985;50.814;8.530;2022-09-06T07:31:17;5.97;;;3.60;;
30173;SDS011;16985;50.814;8.530;2022-09-06T07:33:43;5.57;;;3.38;;
30173;SDS011;16985;50.814;8.530;2022-09-06T07:36:09;5.03;;;3.42;;
30173;SDS011;16985;50.814;8.530;2022-09-06T07:38:35;5.63;;;3.53;;
30173;SDS011;16985;50.814;8.530;2022-09-06T07:41:02;5.25;;;3.70;;
30173;SDS011;16985;50.814;8.530;2022-09-06T07:43:30;7.38;;;3.63;;
30173;SDS011;16985;50.814;8.530;2022-09-06T07:46:07;5.07;;;3.22;;
30173;SDS011;16985;50.814;8.530;2022-09-06T07:48:42;5.18;;;3.25;;
30173;SDS011;16985;50.814;8.530;2022-09-06T07:51:13;7.55;;;3.05;;
30173;SDS011;16985;50.814;8.530;2022-09-06T07:53:50;6.25;;;3.35;;
30173;SDS011;16985;50.814;8.530;2022-09-06T07:56:20;3.75;;;2.75;;
30173;SDS011;16985;50.814;8.530;2022-09-06T07:58:47;3.13;;;2.83;;
30173;SDS011;16985;50.814;8.530;2022-09-06T08:03:49;7.18;;;3.00;;
30173;SDS011;16985;50.814;8.530;2022-09-06T08:06:18;3.00;;;2.70;;
30173;SDS011;16985;50.814;8.530;2022-09-06T08:08:45;3.72;;;2.92;;
30173;SDS011;16985;50.814;8.530;2022-09-06T08:11:11;8.57;;;3.13;;
30173;SDS011;16985;50.814;8.530;2022-09-06T08:13:38;4.03;;;2.60;;
30173;SDS011;16985;50.814;8.530;2022-09-06T08:16:08;5.50;;;2.90;;
30173;SDS011;16985;50.814;8.530;2022-09-06T08:18:36;6.43;;;3.05;;
30173;SDS011;16985;50.814;8.530;2022-09-06T08:21:06;3.63;;;2.45;;
30173;SDS011;16985;50.814;8.530;2022-09-06T08:23:44;3.00;;;2.70;;
30173;SDS011;16985;50.814;8.530;2022-09-06T08:26:12;3.35;;;2.83;;
30173;SDS011;16985;50.814;8.530;2022-09-06T08:28:39;4.78;;;2.50;;
30173;SDS011;16985;50.814;8.530;2022-09-06T08:31:10;4.82;;;2.88;;
30173;SDS011;16985;50.814;8.530;2022-09-06T08:33:38;5.15;;;2.70;;
30173;SDS011;16985;50.814;8.530;2022-09-06T08:36:05;7.25;;;2.42;;
30173;SDS011;16985;50.814;8.530;2022-09-06T08:38:32;7.68;;;2.58;;
30173;SDS011;16985;50.814;8.530;2022-09-06T08:44:04;6.30;;;2.60;;
30173;SDS011;16985;50.814;8.530;2022-09-06T08:49:33;3.95;;;2.35;;
30173;SDS011;16985;50.814;8.530;2022-09-06T09:00:49;8.48;;;2.40;;
30173;SDS011;16985;50.814;8.530;2022-09-06T09:03:32;2.72;;;2.20;;
30173;SDS011;16985;50.814;8.530;2022-09-06T09:06:04;3.13;;;2.00;;
30173;SDS011;16985;50.814;8.530;2022-09-06T09:11:44;3.05;;;1.92;;
30173;SDS011;16985;50.814;8.530;2022-09-06T09:14:19;3.53;;;1.60;;
30173;SDS011;16985;50.814;8.530;2022-09-06T09:16:54;7.57;;;2.50;;
30173;SDS011;16985;50.814;8.530;2022-09-06T09:19:30;2.83;;;1.85;;
30173;SDS011;16985;50.814;8.530;2022-09-06T09:22:00;4.53;;;2.00;;
30173;SDS011;16985;50.814;8.530;2022-09-06T09:24:26;1.98;;;1.55;;
30173;SDS011;16985;50.814;8.530;2022-09-06T09:26:56;2.55;;;2.00;;
30173;SDS011;16985;50.814;8.530;2022-09-06T09:30:10;2.72;;;1.52;;
30173;SDS011;16985;50.814;8.530;2022-09-06T09:32:32;2.03;;;1.48;;
30173;SDS011;16985;50.814;8.530;2022-09-06T09:38:02;3.30;;;1.60;;
30173;SDS011;16985;50.814;8.530;2022-09-06T09:43:33;6.43;;;1.55;;
30173;SDS011;16985;50.814;8.530;2022-09-06T09:46:08;6.05;;;2.05;;
30173;SDS011;16985;50.814;8.530;2022-09-06T09:49:31;4.00;;;1.17;;
30173;SDS011;16985;50.814;8.530;2022-09-06T09:54:39;3.35;;;1.20;;
30173;SDS011;16985;50.814;8.530;2022-09-06T09:57:17;2.42;;;1.20;;
30173;SDS011;16985;50.814;8.530;2022-09-06T09:59:45;12.15;;;1.05;;
30173;SDS011;16985;50.814;8.530;2022-09-06T10:02:38;4.75;;;1.42;;
30173;SDS011;16985;50.814;8.530;2022-09-06T10:07:52;2.72;;;1.05;;
30173;SDS011;16985;50.814;8.530;2022-09-06T10:13:04;3.58;;;1.60;;
30173;SDS011;16985;50.814;8.530;2022-09-06T10:15:47;1.92;;;0.82;;
30173;SDS011;16985;50.814;8.530;2022-09-06T10:21:27;4.30;;;1.08;;
30173;SDS011;16985;50.814;8.530;2022-09-06T10:24:07;2.45;;;1.02;;
30173;SDS011;16985;50.814;8.530;2022-09-06T10:26:54;1.73;;;0.85;;
30173;SDS011;16985;50.814;8.530;2022-09-06T10:29:39;1.77;;;0.77;;
30173;SDS011;16985;50.814;8.530;2022-09-06T10:35:23;4.30;;;1.10;;
30173;SDS011;16985;50.814;8.530;2022-09-06T10:43:49;2.83;;;1.23;;
30173;SDS011;16985;50.814;8.530;2022-09-06T10:46:42;1.33;;;0.77;;
30173;SDS011;16985;50.814;8.530;2022-09-06T10:49:19;1.90;;;1.08;;
30173;SDS011;16985;50.814;8.530;2022-09-06T10:51:46;2.40;;;1.00;;
30173;SDS011;16985;50.814;8.530;2022-09-06T10:54:24;1.92;;;1.10;;
30173;SDS011;16985;50.814;8.530;2022-09-06T10:59:28;4.82;;;0.90;;
30173;SDS011;16985;50.814;8.530;2022-09-06T11:05:18;2.15;;;1.00;;
30173;SDS011;16985;50.814;8.530;2022-09-06T11:07:59;3.20;;;1.00;;
30173;SDS011;16985;50.814;8.530;2022-09-06T11:10:34;5.20;;;0.93;;
30173;SDS011;16985;50.814;8.530;2022-09-06T11:13:14;1.45;;;0.75;;
30173;SDS011;16985;50.814;8.530;2022-09-06T11:21:18;1.83;;;1.00;;
30173;SDS011;16985;50.814;8.530;2022-09-06T11:24:10;4.22;;;0.80;;
30173;SDS011;16985;50.814;8.530;2022-09-06T11:29:52;5.50;;;0.80;;
30173;SDS011;16985;50.814;8.530;2022-09-06T11:32:27;1.48;;;0.93;;
30173;SDS011;16985;50.814;8.530;2022-09-06T11:35:23;3.95;;;1.10;;
30173;SDS011;16985;50.814;8.530;2022-09-06T11:37:57;1.65;;;0.90;;
30173;SDS011;16985;50.814;8.530;2022-09-06T11:40:28;2.70;;;0.80;;
30173;SDS011;16985;50.814;8.530;2022-09-06T11:43:09;4.28;;;0.93;;
30173;SDS011;16985;50.814;8.530;2022-09-06T11:45:49;4.00;;;1.02;;
30173;SDS011;16985;50.814;8.530;2022-09-06T11:53:18;6.03;;;1.05;;
30173;SDS011;16985;50.814;8.530;2022-09-06T11:56:08;4.15;;;0.90;;
30173;SDS011;16985;50.814;8.530;2022-09-06T12:06:31;6.53;;;0.90;;
30173;SDS011;16985;50.814;8.530;2022-09-06T12:09:25;0.95;;;0.80;;
30173;SDS011;16985;50.814;8.530;2022-09-06T12:12:00;1.88;;;0.80;;
30173;SDS011;16985;50.814;8.530;2022-09-06T12:14:28;3.17;;;0.90;;
30173;SDS011;16985;50.814;8.530;2022-09-06T12:19:51;7.27;;;3.50;;
30173;SDS011;16985;50.814;8.530;2022-09-06T12:27:54;2.58;;;1.20;;
30173;SDS011;16985;50.814;8.530;2022-09-06T12:30:38;7.38;;;1.80;;
30173;SDS011;16985;50.814;8.530;2022-09-06T12:33:11;4.55;;;2.15;;
30173;SDS011;16985;50.814;8.530;2022-09-06T12:35:48;2.30;;;1.20;;
30173;SDS011;16985;50.814;8.530;2022-09-06T12:38:15;1.10;;;0.70;;
30173;SDS011;16985;50.814;8.530;2022-09-06T12:40:50;4.00;;;1.42;;
30173;SDS011;16985;50.814;8.530;2022-09-06T12:43:20;4.57;;;1.10;;
30173;SDS011;16985;50.814;8.530;2022-09-06T12:45:47;8.20;;;1.02;;
30173;SDS011;16985;50.814;8.530;2022-09-06T12:48:32;1.75;;;1.05;;
30173;SDS011;16985;50.814;8.530;2022-09-06T12:51:03;5.15;;;1.80;;
30173;SDS011;16985;50.814;8.530;2022-09-06T12:53:32;1.60;;;1.02;;
30173;SDS011;16985;50.814;8.530;2022-09-06T12:56:03;1.40;;;0.50;;
30173;SDS011;16985;50.814;8.530;2022-09-06T12:58:36;1.88;;;0.82;;
30173;SDS011;16985;50.814;8.530;2022-09-06T13:01:08;0.90;;;0.73;;
30173;SDS011;16985;50.814;8.530;2022-09-06T13:06:52;1.73;;;0.70;;
30173;SDS011;16985;50.814;8.530;2022-09-06T13:09:22;3.75;;;0.73;;
30173;SDS011;16985;50.814;8.530;2022-09-06T13:11:51;3.50;;;0.70;;
30173;SDS011;16985;50.814;8.530;2022-09-06T13:16:51;4.22;;;0.95;;
30173;SDS011;16985;50.814;8.530;2022-09-06T13:22:05;2.67;;;1.33;;
30173;SDS011;16985;50.814;8.530;2022-09-06T13:30:07;1.25;;;0.73;;
30173;SDS011;16985;50.814;8.530;2022-09-06T13:32:36;4.00;;;0.93;;
30173;SDS011;16985;50.814;8.530;2022-09-06T13:35:23;2.22;;;1.23;;
30173;SDS011;16985;50.814;8.530;2022-09-06T13:41:06;2.22;;;0.80;;
30173;SDS011;16985;50.814;8.530;2022-09-06T13:43:57;0.75;;;0.52;;
30173;SDS011;16985;50.814;8.530;2022-09-06T13:49:23;1.65;;;0.68;;
30173;SDS011;16985;50.814;8.530;2022-09-06T13:51:50;2.25;;;0.90;;
30173;SDS011;16985;50.814;8.530;2022-09-06T13:54:17;4.30;;;0.95;;
30173;SDS011;16985;50.814;8.530;2022-09-06T13:56:44;1.58;;;0.63;;
30173;SDS011;16985;50.814;8.530;2022-09-06T13:59:10;3.50;;;1.10;;
30173;SDS011;16985;50.814;8.530;2022-09-06T14:01:40;4.78;;;1.00;;
30173;SDS011;16985;50.814;8.530;2022-09-06T14:04:11;0.93;;;0.60;;
30173;SDS011;16985;50.814;8.530;2022-09-06T14:06:44;1.75;;;0.75;;
30173;SDS011;16985;50.814;8.530;2022-09-06T14:09:10;2.53;;;0.93;;
30173;SDS011;16985;50.814;8.530;2022-09-06T14:11:36;8.23;;;1.30;;
30173;SDS011;16985;50.814;8.530;2022-09-06T14:14:02;1.77;;;1.00;;
30173;SDS011;16985;50.814;8.530;2022-09-06T14:16:29;2.92;;;1.10;;
30173;SDS011;16985;50.814;8.530;2022-09-06T14:18:55;1.53;;;1.00;;
30173;SDS011;16985;50.814;8.530;2022-09-06T14:21:22;2.72;;;1.15;;
30173;SDS011;16985;50.814;8.530;2022-09-06T14:23:48;2.63;;;1.25;;
30173;SDS011;16985;50.814;8.530;2022-09-06T14:26:17;2.22;;;0.82;;
30173;SDS011;16985;50.814;8.530;2022-09-06T14:28:45;2.53;;;0.80;;
30173;SDS011;16985;50.814;8.530;2022-09-06T14:31:15;1.67;;;1.20;;
30173;SDS011;16985;50.814;8.530;2022-09-06T14:33:46;2.95;;;1.20;;
30173;SDS011;16985;50.814;8.530;2022-09-06T14:36:13;3.05;;;1.02;;
30173;SDS011;16985;50.814;8.530;2022-09-06T14:38:43;5.38;;;0.95;;
30173;SDS011;16985;50.814;8.530;2022-09-06T14:41:10;4.00;;;1.20;;
30173;SDS011;16985;50.814;8.530;2022-09-06T14:43:42;2.00;;;1.00;;
30173;SDS011;16985;50.814;8.530;2022-09-06T14:46:13;3.83;;;1.00;;
30173;SDS011;16985;50.814;8.530;2022-09-06T14:48:42;0.70;;;0.65;;
30173;SDS011;16985;50.814;8.530;2022-09-06T14:51:18;4.40;;;1.05;;
30173;SDS011;16985;50.814;8.530;2022-09-06T14:53:48;1.48;;;1.08;;
30173;SDS011;16985;50.814;8.530;2022-09-06T14:56:18;2.65;;;1.33;;
30173;SDS011;16985;50.814;8.530;2022-09-06T14:58:44;5.07;;;1.13;;
30173;SDS011;16985;50.814;8.530;2022-09-06T15:01:15;4.25;;;1.55;;
30173;SDS011;16985;50.814;8.530;2022-09-06T15:03:49;1.85;;;1.20;;
30173;SDS011;16985;50.814;8.530;2022-09-06T15:06:22;2.25;;;1.05;;
30173;SDS011;16985;50.814;8.530;2022-09-06T15:08:50;1.65;;;0.90;;
30173;SDS011;16985;50.814;8.530;2022-09-06T15:11:26;2.25;;;0.82;;
30173;SDS011;16985;50.814;8.530;2022-09-06T15:13:56;4.07;;;0.80;;
30173;SDS011;16985;50.814;8.530;2022-09-06T15:16:22;3.78;;;1.13;;
30173;SDS011;16985;50.814;8.530;2022-09-06T15:18:48;3.53;;;0.95;;
30173;SDS011;16985;50.814;8.530;2022-09-06T15:21:15;1.40;;;1.27;;
30173;SDS011;16985;50.814;8.530;2022-09-06T15:23:41;5.88;;;1.52;;
30173;SDS011;16985;50.814;8.530;2022-09-06T15:26:11;1.25;;;0.85;;
30173;SDS011;16985;50.814;8.530;2022-09-06T15:28:39;1.50;;;1.10;;
30173;SDS011;16985;50.814;8.530;2022-09-06T15:31:07;7.63;;;1.10;;
30173;SDS011;16985;50.814;8.530;2022-09-06T15:33:34;1.35;;;0.88;;
30173;SDS011;16985;50.814;8.530;2022-09-06T15:36:02;3.58;;;1.05;;
30173;SDS011;16985;50.814;8.530;2022-09-06T15:38:32;3.90;;;0.98;;
30173;SDS011;16985;50.814;8.530;2022-09-06T15:41:26;1.73;;;0.88;;
30173;SDS011;16985;50.814;8.530;2022-09-06T15:43:57;2.20;;;1.10;;
30173;SDS011;16985;50.814;8.530;2022-09-06T15:49:12;1.48;;;1.05;;
30173;SDS011;16985;50.814;8.530;2022-09-06T15:51:44;1.95;;;1.25;;
30173;SDS011;16985;50.814;8.530;2022-09-06T15:54:11;5.47;;;1.17;;
30173;SDS011;16985;50.814;8.530;2022-09-06T15:56:39;9.00;;;2.03;;
30173;SDS011;16985;50.814;8.530;2022-09-06T15:59:05;6.17;;;1.20;;
30173;SDS011;16985;50.814;8.530;2022-09-06T16:01:32;1.48;;;0.93;;
30173;SDS011;16985;50.814;8.530;2022-09-06T16:03:58;1.57;;;1.00;;
30173;SDS011;16985;50.814;8.530;2022-09-06T16:06:28;6.25;;;1.05;;
30173;SDS011;16985;50.814;8.530;2022-09-06T16:09:07;2.38;;;0.93;;
30173;SDS011;16985;50.814;8.530;2022-09-06T16:11:41;2.47;;;0.88;;
30173;SDS011;16985;50.814;8.530;2022-09-06T16:14:08;2.88;;;1.05;;
30173;SDS011;16985;50.814;8.530;2022-09-06T16:16:40;5.07;;;1.52;;
30173;SDS011;16985;50.814;8.530;2022-09-06T16:21:35;2.58;;;1.00;;
30173;SDS011;16985;50.814;8.530;2022-09-06T16:24:04;4.88;;;0.88;;
30173;SDS011;16985;50.814;8.530;2022-09-06T16:26:37;4.28;;;1.27;;
30173;SDS011;16985;50.814;8.530;2022-09-06T16:29:11;4.22;;;1.10;;
30173;SDS011;16985;50.814;8.530;2022-09-06T16:31:39;4.60;;;1.10;;
30173;SDS011;16985;50.814;8.530;2022-09-06T16:34:05;4.45;;;0.90;;
30173;SDS011;16985;50.814;8.530;2022-09-06T16:36:31;1.93;;;0.90;;
30173;SDS011;16985;50.814;8.530;2022-09-06T16:39:00;2.00;;;0.98;;
30173;SDS011;16985;50.814;8.530;2022-09-06T16:41:26;1.90;;;0.90;;
30173;SDS011;16985;50.814;8.530;2022-09-06T16:44:00;2.72;;;1.20;;
30173;SDS011;16985;50.814;8.530;2022-09-06T16:46:26;1.52;;;0.80;;
30173;SDS011;16985;50.814;8.530;2022-09-06T16:48:56;1.33;;;0.82;;
30173;SDS011;16985;50.814;8.530;2022-09-06T16:51:25;4.28;;;0.98;;
30173;SDS011;16985;50.814;8.530;2022-09-06T16:53:51;2.08;;;1.10;;
30173;SDS011;16985;50.814;8.530;2022-09-06T16:56:19;4.30;;;1.75;;
30173;SDS011;16985;50.814;8.530;2022-09-06T16:58:52;5.53;;;1.40;;
30173;SDS011;16985;50.814;8.530;2022-09-06T17:01:21;6.55;;;1.00;;
30173;SDS011;16985;50.814;8.530;2022-09-06T17:06:14;4.10;;;1.08;;
30173;SDS011;16985;50.814;8.530;2022-09-06T17:08:41;5.00;;;1.23;;
30173;SDS011;16985;50.814;8.530;2022-09-06T17:11:08;2.88;;;0.90;;
30173;SDS011;16985;50.814;8.530;2022-09-06T17:13:43;4.30;;;1.50;;
30173;SDS011;16985;50.814;8.530;2022-09-06T17:16:12;4.25;;;1.05;;
30173;SDS011;16985;50.814;8.530;2022-09-06T17:18:58;4.93;;;1.10;;
30173;SDS011;16985;50.814;8.530;2022-09-06T17:21:25;1.70;;;0.80;;
30173;SDS011;16985;50.814;8.530;2022-09-06T17:23:52;3.65;;;1.55;;
30173;SDS011;16985;50.814;8.530;2022-09-06T17:26:18;2.25;;;0.93;;
30173;SDS011;16985;50.814;8.530;2022-09-06T17:28:47;2.38;;;1.08;;
30173;SDS011;16985;50.814;8.530;2022-09-06T17:31:14;4.20;;;1.17;;
30173;SDS011;16985;50.814;8.530;2022-09-06T17:33:40;4.93;;;1.38;;